Kingsdown, Kansas
Current Conditions -  °F | °C
As of 1:52 PM on Sunday 25 Jan 2015 (Local Time) from KDDC Reporting Station
Clear Clear  
Wind Chill: 54°   Ceiling: Unl
Heat Index: 54°   Visibility: 10mi
Dew Point: 18°   Wind: 24mph
Humidity: 24%   Direction: 340°NNW
Pressure: 30.09"   Gusts: 36mph
Location:  37.6165°N, 99.7893°W
Report Text: KDDC 251952Z AUTO 34021G31KT 10SM CLR 12/M08 A3009 RMK AO2 PK WND 35035/1911 SLP183 T01221078
Loading
Personal Weather Stations






























Interactive Weather Map New forecast layout! Learn more

10-Day Weather Forecast

Advertisements
Track Severe Weather on mobile